sensor_id;sensor_type;location;lat;lon;timestamp;pressure;altitude;pressure_sealevel;temperature;humidity
39449;BME280;25151;45.566;9.382;2023-02-22T00:03:00;100051.31;;;19.56;54.63
39449;BME280;25151;45.566;9.382;2023-02-22T00:06:02;100050.97;;;19.54;54.41
39449;BME280;25151;45.566;9.382;2023-02-22T00:09:04;100048.94;;;19.55;54.24
39449;BME280;25151;45.566;9.382;2023-02-22T00:12:06;100048.16;;;19.54;54.47
39449;BME280;25151;45.566;9.382;2023-02-22T00:15:09;100049.41;;;19.53;54.41
39449;BME280;25151;45.566;9.382;2023-02-22T00:18:14;100040.22;;;19.53;54.36
39449;BME280;25151;45.566;9.382;2023-02-22T00:21:16;100051.41;;;19.53;54.26
39449;BME280;25151;45.566;9.382;2023-02-22T00:24:17;100051.41;;;19.53;54.20
39449;BME280;25151;45.566;9.382;2023-02-22T00:27:22;100050.25;;;19.50;54.27
39449;BME280;25151;45.566;9.382;2023-02-22T00:30:25;100050.25;;;19.50;54.32
39449;BME280;25151;45.566;9.382;2023-02-22T00:33:26;100045.91;;;19.49;54.44
39449;BME280;25151;45.566;9.382;2023-02-22T00:36:27;100051.50;;;19.49;54.28
39449;BME280;25151;45.566;9.382;2023-02-22T00:39:27;100045.13;;;19.49;54.42
39449;BME280;25151;45.566;9.382;2023-02-22T00:42:28;100052.72;;;19.48;54.33
39449;BME280;25151;45.566;9.382;2023-02-22T00:45:31;100042.72;;;19.47;54.22
39449;BME280;25151;45.566;9.382;2023-02-22T00:48:31;100043.50;;;19.48;54.30
39449;BME280;25151;45.566;9.382;2023-02-22T00:51:32;100039.94;;;19.47;54.23
39449;BME280;25151;45.566;9.382;2023-02-22T00:54:33;100038.38;;;19.46;54.48
39449;BME280;25151;45.566;9.382;2023-02-22T00:57:34;100034.78;;;19.46;54.27
39449;BME280;25151;45.566;9.382;2023-02-22T01:00:38;100039.59;;;19.45;54.35
39449;BME280;25151;45.566;9.382;2023-02-22T01:03:41;100038.38;;;19.46;53.99
39449;BME280;25151;45.566;9.382;2023-02-22T01:06:42;100042.72;;;19.47;54.18
39449;BME280;25151;45.566;9.382;2023-02-22T01:09:43;100038.03;;;19.44;54.27
39449;BME280;25151;45.566;9.382;2023-02-22T01:12:44;100035.66;;;19.42;54.20
39449;BME280;25151;45.566;9.382;2023-02-22T01:15:45;100042.03;;;19.43;54.32
39449;BME280;25151;45.566;9.382;2023-02-22T01:18:46;100038.03;;;19.44;54.27
39449;BME280;25151;45.566;9.382;2023-02-22T01:21:48;100043.63;;;19.44;54.31
39449;BME280;25151;45.566;9.382;2023-02-22T01:24:50;100033.31;;;19.41;54.28
39449;BME280;25151;45.566;9.382;2023-02-22T01:27:51;100033.31;;;19.41;54.31
39449;BME280;25151;45.566;9.382;2023-02-22T01:30:52;100027.72;;;19.41;54.45
39449;BME280;25151;45.566;9.382;2023-02-22T01:33:55;100037.66;;;19.42;54.46
39449;BME280;25151;45.566;9.382;2023-02-22T01:36:56;100030.50;;;19.41;54.20
39449;BME280;25151;45.566;9.382;2023-02-22T01:39:58;100024.56;;;19.39;54.38
39449;BME280;25151;45.566;9.382;2023-02-22T01:43:00;100019.81;;;19.36;54.16
39449;BME280;25151;45.566;9.382;2023-02-22T01:46:05;100024.56;;;19.39;54.23
39449;BME280;25151;45.566;9.382;2023-02-22T01:49:07;100021.41;;;19.37;54.35
39449;BME280;25151;45.566;9.382;2023-02-22T01:52:13;100012.59;;;19.38;54.49
39449;BME280;25151;45.566;9.382;2023-02-22T01:55:16;100017.41;;;19.38;54.46
39449;BME280;25151;45.566;9.382;2023-02-22T01:58:17;100011.03;;;19.37;54.20
39449;BME280;25151;45.566;9.382;2023-02-22T02:01:21;100011.03;;;19.37;54.22
39449;BME280;25151;45.566;9.382;2023-02-22T02:04:23;100013.03;;;19.37;54.33
39449;BME280;25151;45.566;9.382;2023-02-22T02:07:24;100001.47;;;19.35;54.05
39449;BME280;25151;45.566;9.382;2023-02-22T02:10:26;100008.66;;;19.36;54.37
39449;BME280;25151;45.566;9.382;2023-02-22T02:13:27;100000.25;;;19.36;54.09
39449;BME280;25151;45.566;9.382;2023-02-22T02:16:40;99997.47;;;19.36;54.13
39449;BME280;25151;45.566;9.382;2023-02-22T02:20:06;99997.47;;;19.36;54.08
39449;BME280;25151;45.566;9.382;2023-02-22T02:23:44;100001.47;;;19.35;54.13
39449;BME280;25151;45.566;9.382;2023-02-22T02:30:28;99989.19;;;19.32;54.23
39449;BME280;25151;45.566;9.382;2023-02-22T02:37:10;99984.38;;;19.33;54.29
39449;BME280;25151;45.566;9.382;2023-02-22T02:40:27;99987.16;;;19.33;54.15
39449;BME280;25151;45.566;9.382;2023-02-22T02:43:44;99985.56;;;19.32;54.22
39449;BME280;25151;45.566;9.382;2023-02-22T02:47:00;99979.97;;;19.32;54.17
39449;BME280;25151;45.566;9.382;2023-02-22T02:50:12;99982.78;;;19.32;54.28
39449;BME280;25151;45.566;9.382;2023-02-22T02:53:20;99976.41;;;19.31;54.20
39449;BME280;25151;45.566;9.382;2023-02-22T02:56:22;99972.03;;;19.30;54.25
39449;BME280;25151;45.566;9.382;2023-02-22T02:59:31;99977.63;;;19.30;54.29
39449;BME280;25151;45.566;9.382;2023-02-22T03:16:16;99969.25;;;19.30;54.14
39449;BME280;25151;45.566;9.382;2023-02-22T03:19:39;99969.69;;;19.29;54.11
39449;BME280;25151;45.566;9.382;2023-02-22T03:22:56;99964.88;;;19.29;54.12
39449;BME280;25151;45.566;9.382;2023-02-22T03:26:10;99962.50;;;19.28;54.28
39449;BME280;25151;45.566;9.382;2023-02-22T03:29:13;99967.75;;;19.26;54.25
39449;BME280;25151;45.566;9.382;2023-02-22T03:32:20;99968.09;;;19.28;54.56
39449;BME280;25151;45.566;9.382;2023-02-22T03:35:30;99966.19;;;19.25;54.34
39449;BME280;25151;45.566;9.382;2023-02-22T03:38:35;99968.56;;;19.26;54.05
39449;BME280;25151;45.566;9.382;2023-02-22T03:41:37;99971.34;;;19.26;54.16
39449;BME280;25151;45.566;9.382;2023-02-22T03:44:40;99962.97;;;19.26;53.99
39449;BME280;25151;45.566;9.382;2023-02-22T03:47:47;99964.97;;;19.26;54.17
39449;BME280;25151;45.566;9.382;2023-02-22T03:50:52;99969.78;;;19.25;54.02
39449;BME280;25151;45.566;9.382;2023-02-22T03:53:53;99965.84;;;19.23;54.19
39449;BME280;25151;45.566;9.382;2023-02-22T03:57:20;99967.41;;;19.24;54.23
39449;BME280;25151;45.566;9.382;2023-02-22T04:00:27;99970.19;;;19.24;54.16
39449;BME280;25151;45.566;9.382;2023-02-22T04:03:32;99970.19;;;19.24;54.29
39449;BME280;25151;45.566;9.382;2023-02-22T04:06:33;99965.84;;;19.23;54.19
39449;BME280;25151;45.566;9.382;2023-02-22T04:09:33;99970.66;;;19.22;53.99
39449;BME280;25151;45.566;9.382;2023-02-22T04:12:35;99967.84;;;19.22;54.11
39449;BME280;25151;45.566;9.382;2023-02-22T04:15:35;99975.44;;;19.22;54.14
39449;BME280;25151;45.566;9.382;2023-02-22T04:18:36;99963.50;;;19.21;54.10
39449;BME280;25151;45.566;9.382;2023-02-22T04:21:37;99961.09;;;19.20;53.95
39449;BME280;25151;45.566;9.382;2023-02-22T04:24:37;99958.69;;;19.22;54.07
39449;BME280;25151;45.566;9.382;2023-02-22T04:27:38;99963.50;;;19.21;54.09
39449;BME280;25151;45.566;9.382;2023-02-22T04:30:39;99957.91;;;19.21;54.21
39449;BME280;25151;45.566;9.382;2023-02-22T04:33:39;99964.28;;;19.22;54.09
39449;BME280;25151;45.566;9.382;2023-02-22T04:36:40;99962.72;;;19.21;54.22
39449;BME280;25151;45.566;9.382;2023-02-22T04:39:43;99960.31;;;19.19;54.17
39449;BME280;25151;45.566;9.382;2023-02-22T04:42:44;99964.34;;;19.18;54.04
39449;BME280;25151;45.566;9.382;2023-02-22T04:45:45;99960.78;;;19.17;54.07
39449;BME280;25151;45.566;9.382;2023-02-22T04:48:45;99959.53;;;19.19;54.24
39449;BME280;25151;45.566;9.382;2023-02-22T04:51:46;99958.75;;;19.18;53.88
39449;BME280;25151;45.566;9.382;2023-02-22T04:54:46;99965.59;;;19.17;54.09
39449;BME280;25151;45.566;9.382;2023-02-22T04:57:47;99963.56;;;19.17;54.05
39449;BME280;25151;45.566;9.382;2023-02-22T05:00:48;99956.41;;;19.16;54.26
39449;BME280;25151;45.566;9.382;2023-02-22T05:03:49;99960.41;;;19.15;54.19
39449;BME280;25151;45.566;9.382;2023-02-22T05:06:50;99969.16;;;19.17;54.11
39449;BME280;25151;45.566;9.382;2023-02-22T05:09:50;99960.00;;;19.17;54.24
39449;BME280;25151;45.566;9.382;2023-02-22T05:12:51;99960.41;;;19.15;54.13
39449;BME280;25151;45.566;9.382;2023-02-22T05:15:52;99960.41;;;19.15;54.02
39449;BME280;25151;45.566;9.382;2023-02-22T05:18:54;99958.84;;;19.14;54.45
39449;BME280;25151;45.566;9.382;2023-02-22T05:21:55;99960.06;;;19.13;54.06
39449;BME280;25151;45.566;9.382;2023-02-22T05:24:56;99961.31;;;19.12;54.10
39449;BME280;25151;45.566;9.382;2023-02-22T05:28:02;99960.06;;;19.13;54.01
39449;BME280;25151;45.566;9.382;2023-02-22T05:31:03;99961.63;;;19.14;54.28
39449;BME280;25151;45.566;9.382;2023-02-22T05:34:04;99957.69;;;19.12;54.24
39449;BME280;25151;45.566;9.382;2023-02-22T05:37:05;99959.72;;;19.11;53.76
39449;BME280;25151;45.566;9.382;2023-02-22T05:40:06;99958.84;;;19.14;54.12
39449;BME280;25151;45.566;9.382;2023-02-22T05:43:07;99957.28;;;19.13;54.25
39449;BME280;25151;45.566;9.382;2023-02-22T05:46:08;99961.31;;;19.12;54.02
39449;BME280;25151;45.566;9.382;2023-02-22T05:49:09;99960.50;;;19.12;54.20
39449;BME280;25151;45.566;9.382;2023-02-22T05:52:10;99952.09;;;19.12;54.31
39449;BME280;25151;45.566;9.382;2023-02-22T05:55:13;99954.13;;;19.11;54.08
39449;BME280;25151;45.566;9.382;2023-02-22T05:58:14;99954.13;;;19.11;54.16
39449;BME280;25151;45.566;9.382;2023-02-22T06:01:15;99955.34;;;19.10;54.05
39449;BME280;25151;45.566;9.382;2023-02-22T06:04:15;99962.50;;;19.11;54.04
39449;BME280;25151;45.566;9.382;2023-02-22T06:07:16;99962.50;;;19.11;54.33
39449;BME280;25151;45.566;9.382;2023-02-22T06:10:16;99965.31;;;19.11;54.04
39449;BME280;25151;45.566;9.382;2023-02-22T06:13:17;99967.75;;;19.09;54.04
39449;BME280;25151;45.566;9.382;2023-02-22T06:16:19;99976.16;;;19.09;54.08
39449;BME280;25151;45.566;9.382;2023-02-22T06:19:21;99976.94;;;19.10;54.12
39449;BME280;25151;45.566;9.382;2023-02-22T06:22:21;99973.34;;;19.09;54.06
39449;BME280;25151;45.566;9.382;2023-02-22T06:25:25;99973.34;;;19.09;54.27
39449;BME280;25151;45.566;9.382;2023-02-22T06:28:26;99977.72;;;19.10;54.00
39449;BME280;25151;45.566;9.382;2023-02-22T06:31:26;99973.34;;;19.09;54.13
39449;BME280;25151;45.566;9.382;2023-02-22T06:34:27;99973.34;;;19.09;54.06
39449;BME280;25151;45.566;9.382;2023-02-22T06:37:28;99980.50;;;19.10;54.42
39449;BME280;25151;45.566;9.382;2023-02-22T06:40:28;99981.75;;;19.09;53.99
39449;BME280;25151;45.566;9.382;2023-02-22T06:43:29;99974.53;;;19.08;54.08
39449;BME280;25151;45.566;9.382;2023-02-22T06:46:30;99982.94;;;19.08;54.15
39449;BME280;25151;45.566;9.382;2023-02-22T06:49:31;99988.53;;;19.08;54.04
39449;BME280;25151;45.566;9.382;2023-02-22T06:52:33;99986.97;;;19.07;54.08
39449;BME280;25151;45.566;9.382;2023-02-22T06:55:34;99982.59;;;19.06;54.18
39449;BME280;25151;45.566;9.382;2023-02-22T06:58:34;99988.88;;;19.10;54.26
39449;BME280;25151;45.566;9.382;2023-02-22T07:01:35;99982.94;;;19.08;54.08
39449;BME280;25151;45.566;9.382;2023-02-22T07:04:37;99992.06;;;19.12;54.15
39449;BME280;25151;45.566;9.382;2023-02-22T07:07:38;99986.00;;;19.14;54.17
39449;BME280;25151;45.566;9.382;2023-02-22T07:10:39;99997.13;;;19.17;54.19
39449;BME280;25151;45.566;9.382;2023-02-22T07:13:40;99994.66;;;19.20;54.13
39449;BME280;25151;45.566;9.382;2023-02-22T07:16:40;99998.16;;;19.24;54.12
39449;BME280;25151;45.566;9.382;2023-02-22T07:19:41;99997.66;;;19.29;54.37
39449;BME280;25151;45.566;9.382;2023-02-22T07:22:42;100001.16;;;19.33;53.98
39449;BME280;25151;45.566;9.382;2023-02-22T07:25:43;99987.88;;;19.37;54.09
39449;BME280;25151;45.566;9.382;2023-02-22T07:28:43;99993.38;;;19.40;53.71
39449;BME280;25151;45.566;9.382;2023-02-22T07:31:44;99990.13;;;19.42;53.96
39449;BME280;25151;45.566;9.382;2023-02-22T07:34:46;99987.34;;;19.42;53.96
39449;BME280;25151;45.566;9.382;2023-02-22T07:37:47;99994.41;;;19.47;53.79
39449;BME280;25151;45.566;9.382;2023-02-22T07:40:47;99991.19;;;19.48;53.88
39449;BME280;25151;45.566;9.382;2023-02-22T07:43:48;99989.97;;;19.49;53.87
39449;BME280;25151;45.566;9.382;2023-02-22T07:46:49;99989.50;;;19.51;53.84
39449;BME280;25151;45.566;9.382;2023-02-22T07:49:49;99986.63;;;19.54;53.75
39449;BME280;25151;45.566;9.382;2023-02-22T07:52:53;99985.75;;;19.57;53.64
39449;BME280;25151;45.566;9.382;2023-02-22T07:56:04;99995.22;;;19.63;53.55
39449;BME280;25151;45.566;9.382;2023-02-22T07:59:04;99984.72;;;19.68;53.70
39449;BME280;25151;45.566;9.382;2023-02-22T08:02:12;99984.13;;;19.76;53.55
39449;BME280;25151;45.566;9.382;2023-02-22T08:05:15;99988.72;;;19.83;53.65
39449;BME280;25151;45.566;9.382;2023-02-22T08:08:49;99985.72;;;19.90;53.38
39449;BME280;25151;45.566;9.382;2023-02-22T08:11:47;99979.16;;;19.97;53.26
39449;BME280;25151;45.566;9.382;2023-02-22T08:14:58;99984.22;;;20.02;53.19
39449;BME280;25151;45.566;9.382;2023-02-22T08:18:02;99986.06;;;20.08;53.30
39449;BME280;25151;45.566;9.382;2023-02-22T08:21:12;99981.13;;;20.12;53.00
39449;BME280;25151;45.566;9.382;2023-02-22T08:24:16;99988.19;;;20.17;53.05
39449;BME280;25151;45.566;9.382;2023-02-22T08:27:28;99984.84;;;20.22;53.14
39449;BME280;25151;45.566;9.382;2023-02-22T08:30:31;99980.03;;;20.23;52.83
39449;BME280;25151;45.566;9.382;2023-02-22T08:33:34;99983.19;;;20.25;52.82
39449;BME280;25151;45.566;9.382;2023-02-22T08:36:34;99976.72;;;20.28;52.64
39449;BME280;25151;45.566;9.382;2023-02-22T08:39:38;99981.75;;;20.33;52.70
39449;BME280;25151;45.566;9.382;2023-02-22T08:42:51;99983.00;;;20.32;52.77
39449;BME280;25151;45.566;9.382;2023-02-22T08:45:52;99984.47;;;20.36;52.61
39449;BME280;25151;45.566;9.382;2023-02-22T08:49:04;99978.06;;;20.36;52.47
39449;BME280;25151;45.566;9.382;2023-02-22T08:52:21;99975.59;;;20.38;52.48
39449;BME280;25151;45.566;9.382;2023-02-22T08:55:50;99977.16;;;20.39;52.38
39449;BME280;25151;45.566;9.382;2023-02-22T08:58:50;99976.38;;;20.38;52.22
39449;BME280;25151;45.566;9.382;2023-02-22T09:01:51;99973.16;;;20.40;52.32
39449;BME280;25151;45.566;9.382;2023-02-22T09:04:52;99973.16;;;20.40;52.50
39449;BME280;25151;45.566;9.382;2023-02-22T09:07:59;99965.09;;;20.42;52.33
39449;BME280;25151;45.566;9.382;2023-02-22T09:11:03;99964.31;;;20.42;52.31
39449;BME280;25151;45.566;9.382;2023-02-22T09:14:04;99964.19;;;20.45;52.11
39449;BME280;25151;45.566;9.382;2023-02-22T09:17:05;99964.19;;;20.45;52.23
39449;BME280;25151;45.566;9.382;2023-02-22T09:20:07;99966.69;;;20.43;52.33
39449;BME280;25151;45.566;9.382;2023-02-22T09:23:09;99968.66;;;20.43;52.14
39449;BME280;25151;45.566;9.382;2023-02-22T09:26:10;99969.47;;;20.43;52.34
39449;BME280;25151;45.566;9.382;2023-02-22T09:29:11;99961.84;;;20.44;52.34
39449;BME280;25151;45.566;9.382;2023-02-22T09:32:11;99961.75;;;20.47;52.15
39449;BME280;25151;45.566;9.382;2023-02-22T09:35:12;99960.88;;;20.50;52.05
39449;BME280;25151;45.566;9.382;2023-02-22T09:38:17;99951.13;;;20.55;52.11
39449;BME280;25151;45.566;9.382;2023-02-22T09:41:25;99945.41;;;20.58;51.86
39449;BME280;25151;45.566;9.382;2023-02-22T09:47:48;99957.31;;;20.62;52.07
39449;BME280;25151;45.566;9.382;2023-02-22T09:50:52;99955.19;;;20.67;51.96
39449;BME280;25151;45.566;9.382;2023-02-22T09:54:01;99953.97;;;20.68;51.65
39449;BME280;25151;45.566;9.382;2023-02-22T09:57:06;99953.97;;;20.68;51.76
39449;BME280;25151;45.566;9.382;2023-02-22T10:00:19;99947.91;;;20.69;51.87
39449;BME280;25151;45.566;9.382;2023-02-22T10:03:33;99941.06;;;20.70;51.79
39449;BME280;25151;45.566;9.382;2023-02-22T10:06:38;99935.47;;;20.70;51.70
39449;BME280;25151;45.566;9.382;2023-02-22T10:09:43;99937.81;;;20.72;51.79
39449;BME280;25151;45.566;9.382;2023-02-22T10:13:16;99936.59;;;20.73;51.67
39449;BME280;25151;45.566;9.382;2023-02-22T10:16:35;99934.25;;;20.71;51.72
39449;BME280;25151;45.566;9.382;2023-02-22T10:26:28;99928.19;;;20.73;51.42
39449;BME280;25151;45.566;9.382;2023-02-22T10:29:42;99926.94;;;20.74;51.36
39449;BME280;25151;45.566;9.382;2023-02-22T10:32:51;99928.84;;;20.77;51.29
39449;BME280;25151;45.566;9.382;2023-02-22T10:35:54;99926.06;;;20.77;51.51
39449;BME280;25151;45.566;9.382;2023-02-22T10:39:01;99926.84;;;20.77;51.12
39449;BME280;25151;45.566;9.382;2023-02-22T10:42:11;99916.09;;;20.76;51.36
39449;BME280;25151;45.566;9.382;2023-02-22T10:45:29;99915.31;;;20.75;51.54
39449;BME280;25151;45.566;9.382;2023-02-22T10:48:35;99908.91;;;20.75;51.27
39449;BME280;25151;45.566;9.382;2023-02-22T10:51:37;99908.00;;;20.78;51.35
39449;BME280;25151;45.566;9.382;2023-02-22T10:54:44;99911.94;;;20.80;51.45
39449;BME280;25151;45.566;9.382;2023-02-22T10:57:50;99900.72;;;20.80;51.38
39449;BME280;25151;45.566;9.382;2023-02-22T11:00:52;99902.28;;;20.81;51.42
39449;BME280;25151;45.566;9.382;2023-02-22T11:10:01;99887.16;;;20.79;51.30
39449;BME280;25151;45.566;9.382;2023-02-22T11:13:15;99884.03;;;20.77;51.34
39449;BME280;25151;45.566;9.382;2023-02-22T11:16:19;99879.97;;;20.78;51.49
39449;BME280;25151;45.566;9.382;2023-02-22T11:19:23;99878.75;;;20.79;51.30
39449;BME280;25151;45.566;9.382;2023-02-22T11:22:28;99870.34;;;20.79;51.38
39449;BME280;25151;45.566;9.382;2023-02-22T11:25:39;99858.34;;;20.78;51.49
39449;BME280;25151;45.566;9.382;2023-02-22T11:28:48;99862.28;;;20.81;51.33
39449;BME280;25151;45.566;9.382;2023-02-22T11:31:50;99852.63;;;20.82;51.42
39449;BME280;25151;45.566;9.382;2023-02-22T11:34:51;99847.78;;;20.82;51.36
39449;BME280;25151;45.566;9.382;2023-02-22T11:38:19;99850.16;;;20.84;51.37
39449;BME280;25151;45.566;9.382;2023-02-22T11:41:27;99845.34;;;20.84;51.56
39449;BME280;25151;45.566;9.382;2023-02-22T11:44:30;99840.50;;;20.85;51.56
39449;BME280;25151;45.566;9.382;2023-02-22T11:47:31;99839.72;;;20.84;51.45
39449;BME280;25151;45.566;9.382;2023-02-22T11:57:43;99831.31;;;20.84;51.90
39449;BME280;25151;45.566;9.382;2023-02-22T12:04:37;99822.13;;;20.84;51.67
39449;BME280;25151;45.566;9.382;2023-02-22T12:08:18;99817.88;;;20.79;51.79
39449;BME280;25151;45.566;9.382;2023-02-22T12:11:31;99816.66;;;20.80;52.12
39449;BME280;25151;45.566;9.382;2023-02-22T12:18:23;99804.00;;;20.76;52.29
39449;BME280;25151;45.566;9.382;2023-02-22T12:21:26;99805.25;;;20.75;52.35
39449;BME280;25151;45.566;9.382;2023-02-22T12:25:23;99800.84;;;20.74;52.24
39449;BME280;25151;45.566;9.382;2023-02-22T12:28:23;99789.63;;;20.74;52.39
39449;BME280;25151;45.566;9.382;2023-02-22T12:31:34;99785.16;;;20.76;52.29
39449;BME280;25151;45.566;9.382;2023-02-22T12:34:47;99785.47;;;20.78;52.49
39449;BME280;25151;45.566;9.382;2023-02-22T12:44:23;99780.22;;;20.80;52.46
39449;BME280;25151;45.566;9.382;2023-02-22T12:47:32;99779.75;;;20.82;52.63
39449;BME280;25151;45.566;9.382;2023-02-22T12:50:36;99774.50;;;20.84;52.46
39449;BME280;25151;45.566;9.382;2023-02-22T12:53:39;99769.78;;;20.81;52.71
39449;BME280;25151;45.566;9.382;2023-02-22T13:00:06;99766.97;;;20.81;52.82
39449;BME280;25151;45.566;9.382;2023-02-22T13:10:10;99754.53;;;20.82;52.79
39449;BME280;25151;45.566;9.382;2023-02-22T13:16:40;99757.03;;;20.80;53.12
39449;BME280;25151;45.566;9.382;2023-02-22T13:19:58;99750.63;;;20.79;52.87
39449;BME280;25151;45.566;9.382;2023-02-22T13:46:59;99732.03;;;20.73;52.88
39449;BME280;25151;45.566;9.382;2023-02-22T13:50:40;99727.56;;;20.75;53.14
39449;BME280;25151;45.566;9.382;2023-02-22T13:54:07;99731.13;;;20.76;52.96
39449;BME280;25151;45.566;9.382;2023-02-22T13:57:26;99729.56;;;20.75;53.44
39449;BME280;25151;45.566;9.382;2023-02-22T14:00:49;99720.03;;;20.72;53.39
39449;BME280;25151;45.566;9.382;2023-02-22T14:03:50;99723.28;;;20.71;53.48
39449;BME280;25151;45.566;9.382;2023-02-22T14:20:23;99713.66;;;20.72;53.86
39449;BME280;25151;45.566;9.382;2023-02-22T14:26:36;99704.47;;;20.71;54.02
39449;BME280;25151;45.566;9.382;2023-02-22T14:29:57;99711.31;;;20.70;54.27
39449;BME280;25151;45.566;9.382;2023-02-22T14:33:00;99709.63;;;20.73;54.21
39449;BME280;25151;45.566;9.382;2023-02-22T14:36:02;99709.16;;;20.74;54.42
39449;BME280;25151;45.566;9.382;2023-02-22T14:45:33;99698.41;;;20.73;55.10
39449;BME280;25151;45.566;9.382;2023-02-22T14:48:40;99703.25;;;20.72;54.94
39449;BME280;25151;45.566;9.382;2023-02-22T14:51:49;99706.34;;;20.74;55.25
39449;BME280;25151;45.566;9.382;2023-02-22T14:54:59;99697.50;;;20.76;55.48
39449;BME280;25151;45.566;9.382;2023-02-22T15:01:32;99705.25;;;20.72;55.48
39449;BME280;25151;45.566;9.382;2023-02-22T15:04:36;99694.94;;;20.69;55.30
39449;BME280;25151;45.566;9.382;2023-02-22T15:07:37;99693.41;;;20.68;55.67
39449;BME280;25151;45.566;9.382;2023-02-22T15:13:50;99701.78;;;20.68;55.73
39449;BME280;25151;45.566;9.382;2023-02-22T15:16:56;99695.84;;;20.66;55.69
39449;BME280;25151;45.566;9.382;2023-02-22T15:19:59;99694.28;;;20.65;56.06
39449;BME280;25151;45.566;9.382;2023-02-22T15:22:59;99698.00;;;20.61;55.64
39449;BME280;25151;45.566;9.382;2023-02-22T15:26:01;99690.84;;;20.60;56.06
39449;BME280;25151;45.566;9.382;2023-02-22T15:29:17;99692.06;;;20.59;56.04
39449;BME280;25151;45.566;9.382;2023-02-22T15:32:29;99692.50;;;20.58;56.08
39449;BME280;25151;45.566;9.382;2023-02-22T15:35:32;99690.94;;;20.57;55.72
39449;BME280;25151;45.566;9.382;2023-02-22T15:38:37;99695.00;;;20.56;56.10
39449;BME280;25151;45.566;9.382;2023-02-22T15:41:47;99694.22;;;20.55;55.66
39449;BME280;25151;45.566;9.382;2023-02-22T15:44:52;99691.06;;;20.53;55.69
39449;BME280;25151;45.566;9.382;2023-02-22T15:47:57;99687.81;;;20.55;55.80
39449;BME280;25151;45.566;9.382;2023-02-22T15:51:08;99692.63;;;20.54;55.80
39449;BME280;25151;45.566;9.382;2023-02-22T15:54:12;99689.81;;;20.54;56.05
39449;BME280;25151;45.566;9.382;2023-02-22T15:57:18;99698.13;;;20.58;55.75
39449;BME280;25151;45.566;9.382;2023-02-22T16:00:26;99693.41;;;20.55;55.71
39449;BME280;25151;45.566;9.382;2023-02-22T16:07:31;99700.72;;;20.52;55.82
39449;BME280;25151;45.566;9.382;2023-02-22T16:10:32;99694.75;;;20.50;55.65
39449;BME280;25151;45.566;9.382;2023-02-22T16:13:42;99691.28;;;20.46;55.73
39449;BME280;25151;45.566;9.382;2023-02-22T16:21:15;99688.16;;;20.44;55.71
39449;BME280;25151;45.566;9.382;2023-02-22T16:24:31;99686.59;;;20.43;55.19
39449;BME280;25151;45.566;9.382;2023-02-22T16:27:44;99689.84;;;20.42;55.45
39449;BME280;25151;45.566;9.382;2023-02-22T16:31:43;99689.84;;;20.42;55.60
39449;BME280;25151;45.566;9.382;2023-02-22T16:34:49;99693.09;;;20.40;55.43
39449;BME280;25151;45.566;9.382;2023-02-22T16:38:01;99687.50;;;20.40;55.48
39449;BME280;25151;45.566;9.382;2023-02-22T16:48:27;99689.63;;;20.36;55.49
39449;BME280;25151;45.566;9.382;2023-02-22T16:55:36;99690.84;;;20.35;55.54
39449;BME280;25151;45.566;9.382;2023-02-22T16:58:38;99690.84;;;20.35;55.64
39449;BME280;25151;45.566;9.382;2023-02-22T17:01:40;99689.28;;;20.34;55.77
39449;BME280;25151;45.566;9.382;2023-02-22T17:04:41;99689.94;;;20.38;55.51
39449;BME280;25151;45.566;9.382;2023-02-22T17:07:48;99701.16;;;20.38;55.45
39449;BME280;25151;45.566;9.382;2023-02-22T17:10:50;99698.03;;;20.36;55.75
39449;BME280;25151;45.566;9.382;2023-02-22T17:13:56;99699.25;;;20.35;55.49
39449;BME280;25151;45.566;9.382;2023-02-22T17:16:56;99711.69;;;20.34;55.42
39449;BME280;25151;45.566;9.382;2023-02-22T17:19:57;99714.47;;;20.34;55.64
39449;BME280;25151;45.566;9.382;2023-02-22T17:23:08;99715.72;;;20.33;55.37
39449;BME280;25151;45.566;9.382;2023-02-22T17:26:09;99710.13;;;20.33;55.61
39449;BME280;25151;45.566;9.382;2023-02-22T17:29:13;99714.16;;;20.32;55.54
39449;BME280;25151;45.566;9.382;2023-02-22T17:32:14;99711.38;;;20.32;55.39
39449;BME280;25151;45.566;9.382;2023-02-22T17:35:19;99714.94;;;20.32;55.39
39449;BME280;25151;45.566;9.382;2023-02-22T17:38:23;99719.78;;;20.32;55.63
39449;BME280;25151;45.566;9.382;2023-02-22T17:41:26;99723.34;;;20.32;55.30
39449;BME280;25151;45.566;9.382;2023-02-22T17:44:27;99724.25;;;20.29;55.49
39449;BME280;25151;45.566;9.382;2023-02-22T17:47:29;99721.44;;;20.29;55.46
39449;BME280;25151;45.566;9.382;2023-02-22T17:50:30;99721.78;;;20.31;55.42
39449;BME280;25151;45.566;9.382;2023-02-22T17:53:32;99726.56;;;20.31;55.30
39449;BME280;25151;45.566;9.382;2023-02-22T17:56:33;99728.59;;;20.30;55.23
39449;BME280;25151;45.566;9.382;2023-02-22T17:59:34;99723.00;;;20.30;55.36
39449;BME280;25151;45.566;9.382;2023-02-22T18:02:35;99723.00;;;20.30;55.40
39449;BME280;25151;45.566;9.382;2023-02-22T18:18:04;99730.31;;;20.28;55.59
39449;BME280;25151;45.566;9.382;2023-02-22T18:21:05;99730.63;;;20.30;55.47
39449;BME280;25151;45.566;9.382;2023-02-22T18:24:06;99724.25;;;20.29;55.67
39449;BME280;25151;45.566;9.382;2023-02-22T18:27:07;99725.47;;;20.28;55.89
39449;BME280;25151;45.566;9.382;2023-02-22T18:30:11;99721.91;;;20.28;55.84
39449;BME280;25151;45.566;9.382;2023-02-22T18:33:12;99723.13;;;20.27;56.37
39449;BME280;25151;45.566;9.382;2023-02-22T18:36:18;99715.94;;;20.26;56.41
39449;BME280;25151;45.566;9.382;2023-02-22T18:39:22;99717.50;;;20.27;56.36
39449;BME280;25151;45.566;9.382;2023-02-22T18:42:24;99720.00;;;20.25;56.37
39449;BME280;25151;45.566;9.382;2023-02-22T18:45:25;99708.00;;;20.24;56.46
39449;BME280;25151;45.566;9.382;2023-02-22T18:48:26;99704.75;;;20.26;56.53
39449;BME280;25151;45.566;9.382;2023-02-22T18:51:27;99708.44;;;20.23;56.61
39449;BME280;25151;45.566;9.382;2023-02-22T18:54:29;99717.97;;;20.25;56.60
39449;BME280;25151;45.566;9.382;2023-02-22T18:57:33;99710.81;;;20.24;56.68